Çanakkale Airport

LTBH · Canakkale, Turquia

História da METAR LTBH · Çanakkale Airport

Abaixo você vê METARs dos últimos dias. Selecione um ano para navegar pelos METARs mais antigos, a partir do ano 2007.

25 de maio de 2024

Hora Código Clima Temp. Visibilidade Tecto Vento METAR/SPECI
12:50
V
24 °C 10 km+ - 010° 010° 13 kt METAR LTBH 250950Z 01013KT 9999 FEW035 24/12 Q1016
11:50
V
24 °C 10 km+ - 020° 020° 12 kt METAR LTBH 250850Z 02012KT 9999 FEW035 24/12 Q1016
10:50
V
23 °C 10 km+ - 010° 010° 12 kt METAR LTBH 250750Z 01012KT 9999 FEW035 23/11 Q1016
09:50
V
22 °C 10 km+ - 010° 010° 11 kt METAR LTBH 250650Z 01011KT 340V040 CAVOK 22/12 Q1016
08:50
V
20 °C 10 km+ - 020° 020° 8 kt METAR LTBH 250550Z 02008KT 340V040 CAVOK 20/14 Q1016
07:50
V
16 °C 10 km+ - 040° 040° 5 kt METAR LTBH 250450Z 04005KT CAVOK 16/13 Q1016
06:50
V
14 °C 10 km+ - 030° 030° 6 kt METAR LTBH 250350Z 03006KT CAVOK 14/12 Q1015
05:50
V
14 °C 10 km+ - 010° 010° 6 kt METAR LTBH 250250Z 01006KT CAVOK 14/12 Q1015
04:50
V
13 °C 10 km+ - 040° 040° 5 kt METAR LTBH 250150Z 04005KT CAVOK 13/12 Q1015
03:50
V
14 °C 10 km+ - 030° 030° 7 kt METAR LTBH 250050Z 03007KT CAVOK 14/13 Q1015
02:50
V
15 °C 10 km+ - 030° 030° 3 kt METAR LTBH 242350Z 03003KT CAVOK 15/13 Q1015
01:50
V
15 °C 10 km+ - 010° 010° 3 kt METAR LTBH 242250Z 01003KT CAVOK 15/13 Q1015
00:50
V
17 °C 10 km+ - 360° 360° 2 kt METAR LTBH 242150Z 36002KT CAVOK 17/13 Q1015

24 de maio de 2024

Hora Código Clima Temp. Visibilidade Tecto Vento METAR/SPECI
23:50
V
17 °C 10 km+ - 020° 020° 4 kt METAR LTBH 242050Z 02004KT 9999 FEW035 SCT100 17/13 Q1016
22:50
V
19 °C 10 km+ - Var Var 1 kt METAR LTBH 241950Z VRB01KT 9999 FEW035 SCT100 19/13 Q1016
21:50
V
19 °C 10 km+ - 020° 020° 4 kt METAR LTBH 241850Z 02004KT 350V050 9999 FEW035 SCT100 19/13 Q1016
20:50
V
21 °C 10 km+ - Var Var 2 kt METAR LTBH 241750Z VRB02KT CAVOK 21/13 Q1015
19:50
V
23 °C 10 km+ - 310° 310° 7 kt METAR LTBH 241650Z 31007KT 260V040 CAVOK 23/13 Q1015
18:50
V
25 °C 10 km+ - 310° 310° 7 kt METAR LTBH 241550Z 31007KT 260V350 9999 FEW035 25/12 Q1014
17:50
V
26 °C 10 km+ - 300° 300° 6 kt METAR LTBH 241450Z 30006KT 230V340 9999 FEW035 26/12 Q1015
16:50
V
26 °C 10 km+ - 280° 280° 7 kt METAR LTBH 241350Z 28007KT 240V330 9999 FEW035 26/13 Q1015
15:50
V
26 °C 10 km+ - 290° 290° 8 kt METAR LTBH 241250Z 29008KT 260V340 9999 FEW035 26/13 Q1015
14:50
V
27 °C 10 km+ - 360° 360° 6 kt METAR LTBH 241150Z 36006KT 310V040 9999 FEW035 27/11 Q1015
13:50
V
26 °C 10 km+ - 350° 350° 5 kt METAR LTBH 241050Z 35005KT 270V070 CAVOK 26/11 Q1015
12:50
V
26 °C 10 km+ - 350° 350° 5 kt METAR LTBH 240950Z 35005KT 240V040 CAVOK 26/12 Q1015
11:50
V
24 °C 10 km+ - 330° 330° 6 kt METAR LTBH 240850Z 33006KT 280V030 CAVOK 24/12 Q1016
10:50
V
23 °C 10 km+ - 020° 020° 7 kt METAR LTBH 240750Z 02007KT 350V060 CAVOK 23/13 Q1016
09:50
V
22 °C 10 km+ - 020° 020° 7 kt METAR LTBH 240650Z 02007KT 350V050 CAVOK 22/13 Q1015
08:50
V
20 °C 10 km+ - 040° 040° 6 kt METAR LTBH 240550Z 04006KT 020V080 CAVOK 20/14 Q1015
07:50
V
17 °C 10 km+ - 360° 360° 0 kt METAR LTBH 240450Z 00000KT CAVOK 17/14 Q1015
06:50
V
14 °C 10 km+ - 360° 360° 3 kt METAR LTBH 240350Z 36003KT CAVOK 14/13 Q1015
05:50
V
14 °C 10 km+ - 040° 040° 3 kt METAR LTBH 240250Z 04003KT CAVOK 14/13 Q1014
04:50
V
15 °C 10 km+ - 020° 020° 3 kt METAR LTBH 240150Z 02003KT CAVOK 15/13 Q1014
03:50
V
14 °C 10 km+ - 040° 040° 3 kt METAR LTBH 240050Z 04003KT CAVOK 14/13 Q1014
02:50
V
15 °C 10 km+ - 010° 010° 3 kt METAR LTBH 232350Z 01003KT CAVOK 15/13 Q1014
01:50
V
15 °C 10 km+ - 020° 020° 3 kt METAR LTBH 232250Z 02003KT CAVOK 15/13 Q1014
00:50
V
17 °C 10 km+ - 320° 320° 3 kt METAR LTBH 232150Z 32003KT CAVOK 17/14 Q1014

23 de maio de 2024

Hora Código Clima Temp. Visibilidade Tecto Vento METAR/SPECI
23:50
V
16 °C 10 km+ - 010° 010° 6 kt METAR LTBH 232050Z 01006KT 9999 FEW040 SCT100 16/14 Q1014
22:50
V
16 °C 10 km+ - 030° 030° 4 kt METAR LTBH 231950Z 03004KT 9999 FEW040 SCT100 16/14 Q1014
21:50
V
18 °C 10 km+ - Var Var 2 kt METAR LTBH 231850Z VRB02KT CAVOK 18/14 Q1013
20:50
V
20 °C 10 km+ - 320° 320° 3 kt METAR LTBH 231750Z 32003KT 290V350 CAVOK 20/14 Q1012
19:50
V
22 °C 10 km+ - 350° 350° 3 kt METAR LTBH 231650Z 35003KT 310V020 CAVOK 22/13 Q1012
18:50
V
22 °C 10 km+ - 030° 030° 6 kt METAR LTBH 231550Z 03006KT CAVOK 22/13 Q1012
17:50
V
23 °C 10 km+ - 350° 350° 5 kt METAR LTBH 231450Z 35005KT 300V030 CAVOK 23/12 Q1012
16:50
V
22 °C 10 km+ - 020° 020° 4 kt METAR LTBH 231350Z 02004KT 310V080 CAVOK 22/12 Q1011
15:50
V
20 °C 10 km+ 10.000 ft 030° 030° 7 kt METAR LTBH 231250Z 03007KT 9999 SCT030 BKN100 20/14 Q1011
14:50
V
19 °C 10 km+ 10.000 ft 360° 360° 4 kt METAR LTBH 231150Z 36004KT 320V030 9999 SCT030 BKN100 19/15 Q1012
13:50
V
18 °C 10 km+ 10.000 ft 050° 050° 5 kt METAR LTBH 231050Z 05005KT 360V100 9999 SCT030 BKN100 18/14 Q1012 RETSRA
13:10
V
18 °C 10 km+ 10.000 ft 340° 340° 4 kt METAR LTBH 231010Z 34004KT 300V010 9999 SCT030 BKN100 18/13 Q1012 RETSRA
11:50
V
16 °C 10 km+ 10.000 ft 050° 050° 21 kt METAR LTBH 230850Z 05021KT 9999 -TSRA FEW025CB SCT030 BKN100 16/13 Q1011 RETS
11:09
V
19 °C 10 km+ 10.000 ft 030° 030° 12 kt METAR LTBH 230809Z 03012KT 9999 -TSRA FEW025CB SCT030 BKN100 19/13 Q1011 RETS
10:50
V
20 °C 10 km+ 10.000 ft 030° 030° 14 kt METAR LTBH 230750Z 03014KT 9999 TS FEW025CB SCT030 BKN100 20/12 Q1011
10:35
V
20 °C 10 km+ 10.000 ft 030° 030° 16 kt METAR LTBH 230735Z 03016KT 9999 TS FEW025CB SCT030 BKN100 20/12 Q1011
09:50
V
20 °C 10 km+ 20.000 ft 020° 020° 15 kt METAR LTBH 230650Z 02015KT 9999 SCT035 BKN200 20/14 Q1011
08:50
V
19 °C 10 km+ - 010° 010° 12 kt METAR LTBH 230550Z 01012KT 9999 SCT035 19/15 Q1010
Relatar uma mudança